Home > Products > Valid Products > TAF

000
FTUS44 KEPZ 202300
TAFDMN
TAF
KDMN 202320Z 2100/2124 26005KT P6SM SCT250
     FM210500 27005KT P6SM FEW150 BKN250
     FM211900 26010G18KT P6SM FEW250=



000
FTUS44 KEPZ 202300
TAFELP
TAF
KELP 202320Z 2100/2124 27006KT P6SM SCT250
     FM210600 26008KT P6SM FEW150 BKN250
     FM211800 27009KT P6SM FEW250=



000
FTUS44 KEPZ 202300
TAFTCS
TAF
KTCS 202320Z 2100/2124 VRB04KT P6SM SCT250
     FM210400 31005KT P6SM SCT140 BKN250
     FM211800 17005KT P6SM SCT250=



000
FTUS44 KEPZ 201700
TAFELP
TAF
KELP 201722Z 2018/2118 28005KT P6SM FEW150 SCT250=



000
FTUS44 KEPZ 201700
TAFTCS
TAF
KTCS 201722Z 2018/2118 15005KT P6SM FEW250
     FM210300 30006KT P6SM SCT150 BKN250
     FM211300 VRB04KT P6SM SCT250=



000
FTUS44 KEPZ 201700
TAFDMN
TAF
KDMN 201722Z 2018/2118 25005KT P6SM FEW250
     FM210200 28005KT P6SM FEW150 BKN250
     FM211400 27005KT P6SM FEW250=



000
FTUS44 KEPZ 201100
TAFDMN
TAF
KDMN 201139Z 2012/2112 VRB04KT P6SM FEW250
     FM201700 24006KT P6SM SCT250=



000
FTUS44 KEPZ 201100
TAFTCS
TAF
KTCS 201139Z 2012/2112 32006KT P6SM SCT250
     FM202100 15005KT P6SM SCT250
     FM210300 30006KT P6SM SCT250=



000
FTUS44 KEPZ 201100
TAFELP
TAF
KELP 201139Z 2012/2112 02005KT P6SM FEW250
     FM201700 23005KT P6SM SCT250=



000
FTUS44 KEPZ 200500
TAFTCS
TAF
KTCS 200525Z 2006/2106 30005KT P6SM FEW250
     FM201200 VRB04KT P6SM SCT200
     FM202100 15005KT P6SM SCT250
     FM210300 30006KT P6SM SCT250=



000
FTUS44 KEPZ 200500
TAFDMN
TAF
KDMN 200525Z 2006/2106 33004KT P6SM FEW250
     FM202100 24006KT P6SM SCT250
     FM210200 28008KT P6SM SCT250=



000
FTUS44 KEPZ 200500
TAFELP
TAF
KELP 200525Z 2006/2106 02005KT P6SM FEW250
     FM201400 02004KT P6SM SCT250
     FM210400 16004KT P6SM SCT250=



000
FTUS44 KEPZ 192300
TAFELP
TAF
KELP 192320Z 2000/2024 33006KT P6SM FEW025 SCT035
     FM200300 06003KT P6SM FEW250
     FM201400 02004KT P6SM SCT250=



000
FTUS44 KEPZ 192300
TAFDMN
TAF
KDMN 192320Z 2000/2024 VRB04KT P6SM SCT040
     FM200300 VRB04KT P6SM FEW250
     FM202100 24006KT P6SM SCT250=



000
FTUS44 KEPZ 192300
TAFTCS
TAF
KTCS 192320Z 2000/2024 03004KT P6SM SCT040
     FM200300 30005KT P6SM FEW250
     FM201200 VRB04KT P6SM SCT200
     FM202100 03005KT P6SM SCT250=



000
FTUS44 KEPZ 191700
TAFTCS
TAF
KTCS 191722Z 1918/2018 03004KT P6SM SCT040
     FM200300 30005KT P6SM FEW250
     FM201200 VRB04KT P6SM SCT200=



000
FTUS44 KEPZ 191700
TAFDMN
TAF
KDMN 191722Z 1918/2018 VRB04KT P6SM SCT040
     FM200300 VRB04KT P6SM FEW250=



000
FTUS44 KEPZ 191700
TAFELP
TAF
KELP 191722Z 1918/2018 33006KT P6SM FEW025 SCT035
     FM200300 04003KT P6SM FEW250=



000
FTUS44 KEPZ 191400 AAA
TAFDMN
TAF AMD
KDMN 191400Z 1914/2012 30004KT P6SM FEW050
     FM200500 30004KT P6SM SKC=



000
FTUS44 KEPZ 191100
TAFTCS
TAF
KTCS 191120Z 1912/2012 33007KT P6SM SKC
      TEMPO 1912/1914 3SM BR SCT001 SCT040
     FM191700 VRB04KT P6SM SCT040
     FM200500 30007KT P6SM SKC=



000
FTUS44 KEPZ 191100
TAFDMN
TAF
KDMN 191120Z 1912/2012 28003KT 1SM BR VV005
      TEMPO 1912/1914 1/4SM FG SCT001 SCT040
     FM191500 30004KT P6SM FEW050
     FM200500 30004KT P6SM SKC=



000
FTUS44 KEPZ 191100
TAFELP
TAF
KELP 191120Z 1912/2012 26006KT P6SM FEW022 SCT080
      TEMPO 1912/1914 3SM BR SCT001 SCT040
     FM191600 30006KT P6SM SCT050
     FM200500 09003KT P6SM SKC=



000
FTUS44 KEPZ 190500 RRA
TAFDMN
TAF
KDMN 190541Z 1906/2006 28011KT P6SM VCSH FEW030 BKN040 BKN070
     FM190800 29006KT P6SM SCT040
     FM191100 27003KT 3SM BR SCT001
     FM191500 30004KT P6SM FEW050
     FM200200 30004KT P6SM SKC=



000
FTUS44 KEPZ 190500 RRA
TAFTCS
TAF
KTCS 190541Z 1906/2006 16007KT P6SM VCSH BKN015 OVC030
     FM190900 35005KT P6SM SCT010 BKN030
     FM191700 VRB04KT P6SM SCT040
     FM200300 30007KT P6SM SKC=



000
FTUS44 KEPZ 190500 RRA
TAFELP
TAF
KELP 190541Z 1906/2006 29007KT P6SM FEW025 BKN050 BKN100
     FM190800 36007KT P6SM SCT040
      TEMPO 1911/1914 3SM BR SCT001 SCT040
     FM191600 30006KT P6SM FEW050
     FM200200 09003KT P6SM SKC=



000
FTUS44 KEPZ 190400 AAA
TAFELP
TAF AMD
KELP 190438Z 1905/1924 29007KT P6SM FEW025 BKN050 BKN100
     FM190800 36007KT P6SM SCT040
      TEMPO 1911/1914 5SM BR SCT001 SCT040
     FM191600 30006KT P6SM FEW050=



000
FTUS44 KEPZ 190300 AAA
TAFTCS
TAF AMD
KTCS 190358Z 1904/1924 16007KT P6SM VCSH BKN015 OVC030
      TEMPO 1904/1906 -SHRA
     FM190900 35005KT P6SM SCT010 BKN030
     FM191700 VRB04KT P6SM SCT040=



000
FTUS44 KEPZ 190300 AAA
TAFTCS
TAF AMD
KTCS 190358Z 1904/1924 16007KT P6SM VCSH BKN015 OVC030
      TEMPO 1904/1906 -SHRA
     FM190900 35005KT P6SM SCT010 BKN030
     FM191700 VRB04KT P6SM SCT040=



000
FTUS44 KEPZ 182300 RRA
TAFELP
TAF
KELP 182335Z 1900/1924 25009KT P6SM VCSH FEW050 SCT080 OVC110
      TEMPO 1900/1902 6SM -TSRA BKN040CB
     FM190300 29007KT P6SM FEW025 BKN040
     FM190800 36007KT P6SM SCT040
      TEMPO 1911/1914 5SM BR SCT001 SCT040
     FM191600 30006KT P6SM FEW050=



000
FTUS44 KEPZ 182300 RRA
TAFDMN
TAF
KDMN 182335Z 1900/1924 28011KT P6SM VCSH FEW030 BKN040 BKN070
      TEMPO 1900/1902 6SM -SHRA SCT025
     FM190800 29006KT P6SM SCT040
     FM191100 27003KT 5SM BR SCT001 SCT040
     FM191500 30004KT P6SM FEW050=



000
FTUS44 KEPZ 182300 RRA
TAFTCS
TAF
KTCS 182335Z 1900/1924 16007KT P6SM VCSH SCT035 BKN040
      TEMPO 1900/1902 -SHRA BKN035
     FM191000 35005KT P6SM FEW030
     FM191700 VRB04KT P6SM SCT040=



000
FTUS44 KEPZ 181700
TAFTCS
TAF
KTCS 181721Z 1818/1918 12006KT P6SM FEW040 BKN060
     FM182100 16007KT P6SM VCSH SCT025 BKN040
      TEMPO 1821/1901 -SHRA BKN025
     FM190200 35006KT P6SM BKN040
     FM191000 35005KT P6SM SKC=



000
FTUS44 KEPZ 181700
TAFELP
TAF
KELP 181721Z 1818/1918 VRB05KT P6SM SCT060 BKN100
     FM182100 25009KT P6SM VCSH SCT040 BKN070
      TEMPO 1823/1903 5SM -TSRA BKN030CB
     FM190400 29007KT P6SM SCT025 BKN050
     FM191200 36007KT P6SM FEW020=



000
FTUS44 KEPZ 181700
TAFDMN
TAF
KDMN 181721Z 1818/1918 22006KT P6SM VCSH SCT040 BKN060
      TEMPO 1819/1822 5SM -TSRA BKN025CB
     FM182200 28011KT P6SM VCSH SCT025 BKN050
      TEMPO 1822/1824 -SHRA BKN025
     FM190800 29006KT P6SM FEW050=



000
FTUS44 KEPZ 181100
TAFELP
TAF
KELP 181136Z 1812/1912 VRB05KT P6SM FEW050 OVC200
     FM182100 25009KT P6SM SCT050 BKN090
      TEMPO 1823/1903 -SHRA BKN050=



000
FTUS44 KEPZ 181100
TAFTCS
TAF
KTCS 181136Z 1812/1912 28005KT P6SM BKN070 OVC120
     FM181700 27007KT P6SM BKN060
      TEMPO 1817/1821 -SHRA SCT030 OVC060
     FM182100 28008KT P6SM SCT030 BKN060
      TEMPO 1821/1901 -SHRA BKN030=



000
FTUS44 KEPZ 181100
TAFDMN
TAF
KDMN 181136Z 1812/1912 25006KT P6SM VCSH SCT040 OVC070
     FM181700 24006KT P6SM SCT030 BKN070
      TEMPO 1817/1821 -SHRA SCT030 BKN060
     FM182100 26008KT P6SM SCT030 BKN060
      TEMPO 1821/1901 -SHRA BKN030=



000
FTUS44 KEPZ 180500
TAFTCS
TAF
KTCS 180520Z 1806/1906 28005KT P6SM VCSH SCT050 BKN080
     FM181400 VRB04KT P6SM SCT050 BKN100
     FM182200 26006KT P6SM VCSH SCT050 BKN080=



000
FTUS44 KEPZ 180500
TAFDMN
TAF
KDMN 180520Z 1806/1906 25008KT P6SM SCT050 BKN120
     FM181000 25003KT P6SM VCSH SCT060 OVC120
     FM181600 21006KT P6SM SCT060 BKN120
     FM182200 30008KT P6SM VCSH BKN050 OVC100=



000
FTUS44 KEPZ 180500
TAFELP
TAF
KELP 180520Z 1806/1906 VRB05KT P6SM SCT060 BKN200
     FM181100 30006KT P6SM FEW050 OVC140
     FM182300 28010KT P6SM VCSH SCT050 BKN090=



    US Dept of Commerce
    National Oceanic and Atmospheric Administration
    National Weather Service
    1325 East West Highway
    Silver Spring, MD 20910
    Page Author: NWS Internet Services Team
Disclaimer
Information Quality
Credits
Glossary
Privacy Policy
Freedom of Information Act (FOIA)
About Us
Career Opportunities